createdAt,value
2018-12-05T00:01:22.597Z,4.10
2018-12-05T00:03:51.677Z,4.10
2018-12-05T00:06:21.719Z,4.10
2018-12-05T00:08:51.641Z,4.10
2018-12-05T00:11:20.933Z,4.10
2018-12-05T00:13:50.077Z,4.10
2018-12-05T00:16:19.208Z,4.10
2018-12-05T00:18:48.211Z,4.00
2018-12-05T00:21:17.422Z,4.00
2018-12-05T00:23:46.505Z,4.00
2018-12-05T00:26:15.688Z,3.80
2018-12-05T00:28:44.777Z,3.80
2018-12-05T00:31:13.924Z,3.80
2018-12-05T00:33:42.998Z,3.80
2018-12-05T00:36:12.022Z,3.80
2018-12-05T00:38:41.065Z,3.80
2018-12-05T00:41:10.141Z,3.90
2018-12-05T00:43:39.251Z,3.80
2018-12-05T00:46:08.269Z,3.90
2018-12-05T00:48:37.249Z,3.80
2018-12-05T00:51:06.342Z,3.80
2018-12-05T00:53:35.349Z,3.80
2018-12-05T00:56:04.341Z,3.80
2018-12-05T00:58:33.462Z,3.80
2018-12-05T01:01:02.582Z,3.80
2018-12-05T01:03:31.699Z,3.80
2018-12-05T01:06:00.809Z,3.70
2018-12-05T01:08:29.839Z,3.80
2018-12-05T01:10:59.023Z,3.80
2018-12-05T01:13:28.028Z,3.70
2018-12-05T01:15:57.045Z,3.80
2018-12-05T01:18:26.154Z,3.70
2018-12-05T01:20:55.268Z,3.80
2018-12-05T01:23:24.391Z,3.70
2018-12-05T01:25:53.743Z,3.70
2018-12-05T01:28:22.866Z,3.70
2018-12-05T01:30:51.932Z,3.60
2018-12-05T01:33:21.059Z,3.50
2018-12-05T01:35:50.049Z,3.60
2018-12-05T01:38:19.114Z,3.50
2018-12-05T01:40:48.235Z,3.50
2018-12-05T01:43:17.301Z,3.50
2018-12-05T01:45:46.300Z,3.60
2018-12-05T01:48:15.397Z,3.60
2018-12-05T01:50:44.497Z,3.70
2018-12-05T01:53:13.545Z,3.60
2018-12-05T01:55:42.696Z,3.60
2018-12-05T01:58:11.772Z,3.70
2018-12-05T02:00:40.871Z,3.70
2018-12-05T02:03:09.908Z,3.70
2018-12-05T02:05:38.931Z,3.70
2018-12-05T02:08:08.045Z,3.70
2018-12-05T02:10:37.178Z,3.70
2018-12-05T02:13:06.334Z,3.60
2018-12-05T02:15:35.498Z,3.60
2018-12-05T02:18:04.589Z,3.60
2018-12-05T02:20:33.850Z,3.60
2018-12-05T02:23:03.057Z,3.60
2018-12-05T02:25:32.131Z,3.50
2018-12-05T02:28:01.389Z,3.50
2018-12-05T02:30:30.534Z,3.50
2018-12-05T02:32:59.641Z,3.40
2018-12-05T02:35:28.812Z,3.50
2018-12-05T02:37:57.843Z,3.50
2018-12-05T02:40:26.901Z,3.60
2018-12-05T02:42:55.949Z,3.60
2018-12-05T02:45:25.097Z,3.60
2018-12-05T02:47:54.142Z,3.60
2018-12-05T02:50:23.232Z,3.60
2018-12-05T02:52:52.351Z,3.60
2018-12-05T02:55:21.464Z,3.50
2018-12-05T02:57:50.570Z,3.50
2018-12-05T03:00:19.631Z,3.50
2018-12-05T03:02:48.774Z,3.50
2018-12-05T03:05:17.872Z,3.40
2018-12-05T03:07:47.660Z,3.40
2018-12-05T03:10:16.776Z,3.30
2018-12-05T03:12:45.874Z,3.30
2018-12-05T03:15:14.934Z,3.20
2018-12-05T03:17:43.982Z,3.20
2018-12-05T03:20:13.122Z,3.10
2018-12-05T03:22:42.242Z,3.00
2018-12-05T03:25:11.291Z,3.00
2018-12-05T03:27:40.367Z,3.00
2018-12-05T03:30:09.654Z,2.90
2018-12-05T03:32:38.709Z,2.80
2018-12-05T03:35:07.901Z,2.80
2018-12-05T03:37:36.978Z,2.90
2018-12-05T03:40:06.752Z,2.90
2018-12-05T03:42:35.853Z,2.80
2018-12-05T03:45:05.015Z,2.80
2018-12-05T03:47:33.978Z,2.90
2018-12-05T03:50:03.565Z,2.80
2018-12-05T03:52:32.798Z,2.80
2018-12-05T03:55:01.914Z,2.80
2018-12-05T03:57:30.921Z,2.90
2018-12-05T04:00:00.082Z,2.90
2018-12-05T04:02:29.166Z,2.80
2018-12-05T04:04:58.292Z,2.90
2018-12-05T04:07:27.314Z,2.80
2018-12-05T04:09:56.445Z,2.90
2018-12-05T04:12:25.506Z,2.80
2018-12-05T04:14:54.586Z,2.80
2018-12-05T04:17:23.713Z,2.80
2018-12-05T04:19:52.818Z,2.80
2018-12-05T04:22:21.847Z,2.90
2018-12-05T04:24:50.906Z,2.90
2018-12-05T04:27:20.002Z,2.90
2018-12-05T04:29:49.740Z,2.80
2018-12-05T04:32:18.737Z,2.80
2018-12-05T04:34:47.903Z,2.80
2018-12-05T04:37:16.911Z,2.70
2018-12-05T04:39:45.987Z,2.70
2018-12-05T04:42:15.026Z,2.70
2018-12-05T04:44:44.002Z,2.80
2018-12-05T04:47:13.077Z,2.70
2018-12-05T04:49:42.232Z,2.70
2018-12-05T04:52:12.143Z,2.60
2018-12-05T04:54:41.204Z,2.60
2018-12-05T04:57:10.245Z,2.70
2018-12-05T04:59:39.320Z,2.80
2018-12-05T05:02:08.690Z,2.60
2018-12-05T05:04:37.714Z,2.60
2018-12-05T05:07:07.161Z,2.60
2018-12-05T05:09:36.284Z,2.60
2018-12-05T05:12:05.258Z,2.50
2018-12-05T05:14:34.303Z,2.50
2018-12-05T05:17:03.409Z,2.40
2018-12-05T05:19:32.482Z,2.30
2018-12-05T05:22:01.621Z,2.20
2018-12-05T05:24:31.190Z,2.20
2018-12-05T05:27:00.297Z,2.20
2018-12-05T05:29:29.961Z,2.10
2018-12-05T05:31:58.981Z,2.20
2018-12-05T05:34:28.106Z,2.10
2018-12-05T05:36:57.095Z,2.10
2018-12-05T05:39:26.147Z,2.10
2018-12-05T05:41:55.294Z,2.10
2018-12-05T05:44:24.310Z,2.10
2018-12-05T05:47:56.445Z,2.10
2018-12-05T05:50:25.534Z,2.10
2018-12-05T05:52:54.618Z,2.20
2018-12-05T05:55:23.660Z,2.20
2018-12-05T05:57:52.709Z,2.10
2018-12-05T06:00:21.901Z,2.10
2018-12-05T06:02:51.369Z,2.00
2018-12-05T06:05:20.430Z,2.00
2018-12-05T06:07:49.451Z,1.90
2018-12-05T06:10:18.485Z,1.70
2018-12-05T06:12:47.560Z,1.60
2018-12-05T06:15:16.560Z,1.70
2018-12-05T06:17:45.667Z,1.60
2018-12-05T06:20:14.748Z,1.60
2018-12-05T06:22:43.845Z,1.70
2018-12-05T06:25:12.991Z,1.70
2018-12-05T06:27:43.158Z,1.70
2018-12-05T06:30:12.241Z,1.70
2018-12-05T06:32:42.176Z,1.70
2018-12-05T06:35:11.280Z,1.70
2018-12-05T06:37:40.253Z,1.70
2018-12-05T06:40:09.384Z,1.60
2018-12-05T06:42:38.495Z,1.60
2018-12-05T06:45:07.539Z,1.60
2018-12-05T06:47:36.693Z,1.50
2018-12-05T06:50:06.894Z,1.50
2018-12-05T06:52:35.986Z,1.60
2018-12-05T06:55:05.878Z,1.60
2018-12-05T06:57:34.973Z,1.70
2018-12-05T07:00:04.334Z,1.70
2018-12-05T07:02:33.297Z,1.80
2018-12-05T07:05:02.346Z,1.80
2018-12-05T07:07:31.434Z,1.60
2018-12-05T07:10:00.538Z,1.70
2018-12-05T07:12:29.673Z,1.80
2018-12-05T07:14:58.762Z,1.70
2018-12-05T07:17:27.800Z,1.80
2018-12-05T07:19:56.874Z,1.80
2018-12-05T07:22:25.905Z,1.90
2018-12-05T07:24:55.174Z,1.90
2018-12-05T07:27:24.163Z,1.90
2018-12-05T07:29:53.226Z,1.80
2018-12-05T07:32:22.245Z,1.80
2018-12-05T07:34:51.241Z,1.80
2018-12-05T07:37:20.237Z,1.90
2018-12-05T07:39:49.327Z,1.90
2018-12-05T07:42:18.342Z,1.90
2018-12-05T07:44:47.425Z,1.90
2018-12-05T07:47:16.450Z,1.90
2018-12-05T07:49:45.566Z,1.80
2018-12-05T07:52:14.602Z,2.00
2018-12-05T07:54:43.627Z,2.00
2018-12-05T07:57:12.714Z,2.10
2018-12-05T07:59:41.794Z,2.10
2018-12-05T08:02:10.774Z,2.30
2018-12-05T08:04:39.787Z,2.40
2018-12-05T08:07:08.882Z,2.40
2018-12-05T08:09:38.001Z,2.50
2018-12-05T08:12:07.250Z,2.60
2018-12-05T08:14:36.262Z,2.60
2018-12-05T08:17:05.402Z,2.60
2018-12-05T08:19:34.485Z,2.80
2018-12-05T08:22:03.640Z,2.90
2018-12-05T08:24:32.662Z,3.00
2018-12-05T08:27:01.624Z,3.10
2018-12-05T08:29:30.682Z,3.20
2018-12-05T08:31:59.704Z,3.40
2018-12-05T08:34:28.719Z,3.50
2018-12-05T08:36:57.811Z,3.50
2018-12-05T08:39:26.921Z,3.70
2018-12-05T08:41:56.024Z,3.80
2018-12-05T08:44:25.110Z,3.90
2018-12-05T08:46:54.165Z,4.10
2018-12-05T08:49:23.231Z,4.30
2018-12-05T08:51:52.317Z,4.30
2018-12-05T08:54:21.505Z,4.50
2018-12-05T08:56:50.818Z,4.60
2018-12-05T08:59:19.797Z,4.80
2018-12-05T09:01:48.885Z,4.90
2018-12-05T09:04:17.949Z,5.00
2018-12-05T09:06:46.987Z,5.10
2018-12-05T09:09:16.099Z,5.00
2018-12-05T09:11:45.142Z,5.10
2018-12-05T09:14:14.208Z,5.20
2018-12-05T09:16:43.333Z,5.30
2018-12-05T09:19:12.454Z,5.50
2018-12-05T09:21:41.510Z,5.50
2018-12-05T09:24:10.518Z,5.40
2018-12-05T09:26:39.590Z,5.50
2018-12-05T09:29:08.738Z,5.60
2018-12-05T09:31:37.767Z,5.80
2018-12-05T09:34:06.751Z,5.80
2018-12-05T09:36:35.822Z,5.80
2018-12-05T09:39:08.499Z,5.90
2018-12-05T09:41:37.542Z,6.00
2018-12-05T09:44:06.518Z,6.10
2018-12-05T09:46:35.541Z,6.30
2018-12-05T09:49:04.641Z,6.20
2018-12-05T09:51:33.754Z,6.50
2018-12-05T09:54:02.865Z,6.80
2018-12-05T09:56:31.858Z,6.90
2018-12-05T09:59:00.968Z,7.20
2018-12-05T10:01:30.036Z,7.50
2018-12-05T10:03:59.206Z,7.70
2018-12-05T10:06:28.290Z,7.90
2018-12-05T10:08:57.435Z,7.90
2018-12-05T10:11:26.482Z,8.20
2018-12-05T10:13:55.614Z,8.40
2018-12-05T10:16:24.710Z,8.60
2018-12-05T10:18:53.775Z,8.60
2018-12-05T10:21:22.854Z,8.80
2018-12-05T10:23:51.950Z,9.20
2018-12-05T10:26:21.055Z,9.30
2018-12-05T10:28:50.145Z,9.40
2018-12-05T10:31:19.244Z,9.70
2018-12-05T10:33:48.825Z,9.90
2018-12-05T10:36:17.841Z,10.10
2018-12-05T10:38:46.819Z,10.40
2018-12-05T10:41:16.079Z,10.50
2018-12-05T10:43:45.137Z,10.70
2018-12-05T10:46:14.235Z,10.80
2018-12-05T10:48:43.347Z,10.70
2018-12-05T10:51:12.652Z,11.00
2018-12-05T10:53:41.690Z,11.30
2018-12-05T10:56:10.806Z,11.70
2018-12-05T10:58:39.864Z,11.90
2018-12-05T11:01:14.302Z,12.00
2018-12-05T11:03:43.397Z,12.20
2018-12-05T11:07:16.660Z,12.70
2018-12-05T11:09:50.998Z,12.70
2018-12-05T11:12:25.445Z,13.20
2018-12-05T11:14:59.817Z,13.00
2018-12-05T11:17:34.233Z,13.50
2018-12-05T11:20:08.991Z,13.50
2018-12-05T11:22:43.591Z,13.70
2018-12-05T11:25:16.731Z,13.80
2018-12-05T11:27:45.829Z,13.60
2018-12-05T11:30:14.869Z,13.80
2018-12-05T11:32:43.902Z,14.20
2018-12-05T11:35:13.026Z,14.40
2018-12-05T11:37:42.093Z,14.20
2018-12-05T11:40:11.279Z,14.00
2018-12-05T11:42:40.226Z,14.10
2018-12-05T11:45:09.361Z,14.10
2018-12-05T11:47:38.425Z,14.20
2018-12-05T11:50:07.973Z,14.70
2018-12-05T11:52:37.069Z,14.90
2018-12-05T11:55:06.689Z,14.20
2018-12-05T11:57:35.754Z,14.40
2018-12-05T12:00:05.977Z,14.80
2018-12-05T12:02:35.028Z,14.70
2018-12-05T12:05:04.690Z,15.30
2018-12-05T12:07:33.783Z,15.50
2018-12-05T12:10:02.908Z,16.00
2018-12-05T12:12:37.354Z,16.70
2018-12-05T12:15:07.590Z,16.90
2018-12-05T12:17:36.722Z,17.10
2018-12-05T12:20:06.154Z,17.90
2018-12-05T12:22:35.217Z,16.80
2018-12-05T12:25:04.579Z,17.30
2018-12-05T12:27:33.652Z,17.40
2018-12-05T12:30:02.670Z,17.30
2018-12-05T12:32:31.660Z,16.90
2018-12-05T12:35:00.702Z,16.90
2018-12-05T12:37:29.791Z,16.10
2018-12-05T12:39:58.790Z,16.10
2018-12-05T12:42:27.933Z,16.00
2018-12-05T12:44:56.994Z,15.90
2018-12-05T12:47:26.030Z,16.00
2018-12-05T12:49:55.042Z,16.00
2018-12-05T12:52:24.110Z,15.70
2018-12-05T12:54:53.278Z,15.90
2018-12-05T12:57:22.319Z,16.20
2018-12-05T12:59:51.358Z,16.30
2018-12-05T13:02:20.414Z,16.10
2018-12-05T13:04:49.606Z,15.10
2018-12-05T13:07:18.730Z,14.60
2018-12-05T13:09:47.781Z,14.30
2018-12-05T13:12:22.170Z,14.00
2018-12-05T13:14:51.325Z,13.40
2018-12-05T13:17:20.415Z,13.30
2018-12-05T13:19:49.477Z,13.60
2018-12-05T13:22:18.777Z,14.00
2018-12-05T13:24:47.941Z,14.30
2018-12-05T13:27:17.083Z,14.70
2018-12-05T13:29:45.989Z,14.30
2018-12-05T13:32:14.953Z,14.10
2018-12-05T13:34:43.979Z,13.50
2018-12-05T13:37:12.962Z,12.90
2018-12-05T13:39:41.938Z,12.20
2018-12-05T13:42:11.000Z,11.10
2018-12-05T13:44:40.015Z,11.00
2018-12-05T13:47:09.272Z,11.10
2018-12-05T13:49:38.387Z,10.80
2018-12-05T13:52:07.546Z,10.60
2018-12-05T13:54:36.743Z,11.00
2018-12-05T13:57:05.985Z,10.70
2018-12-05T13:59:34.985Z,10.70
2018-12-05T14:02:04.025Z,11.50
2018-12-05T14:04:33.067Z,11.90
2018-12-05T14:07:02.005Z,12.20
2018-12-05T14:09:30.997Z,12.10
2018-12-05T14:11:59.989Z,12.70
2018-12-05T14:14:29.010Z,12.80
2018-12-05T14:16:59.003Z,12.90
2018-12-05T14:19:28.070Z,13.20
2018-12-05T14:21:57.043Z,12.90
2018-12-05T14:24:26.068Z,12.70
2018-12-05T14:26:55.146Z,12.30
2018-12-05T14:29:24.130Z,11.50
2018-12-05T14:31:53.144Z,11.20
2018-12-05T14:34:22.161Z,10.20
2018-12-05T14:36:51.241Z,9.80
2018-12-05T14:39:20.325Z,9.50
2018-12-05T14:41:49.348Z,9.20
2018-12-05T14:44:18.414Z,8.70
2018-12-05T14:46:47.417Z,8.50
2018-12-05T14:49:16.514Z,8.20
2018-12-05T14:51:45.572Z,8.00
2018-12-05T14:54:14.519Z,7.60
2018-12-05T14:56:43.583Z,7.40
2018-12-05T14:59:12.783Z,7.10
2018-12-05T15:01:41.837Z,6.80
2018-12-05T15:04:10.831Z,6.70
2018-12-05T15:06:39.839Z,6.50
2018-12-05T15:09:09.068Z,6.50
2018-12-05T15:11:38.129Z,6.30
2018-12-05T15:14:07.102Z,6.00
2018-12-05T15:16:36.147Z,5.80
2018-12-05T15:19:05.132Z,5.70
2018-12-05T15:21:34.173Z,5.50
2018-12-05T15:24:03.154Z,5.60
2018-12-05T15:26:32.252Z,5.50
2018-12-05T15:29:01.247Z,5.30
2018-12-05T15:31:30.337Z,5.30
2018-12-05T15:33:59.385Z,5.10
2018-12-05T15:36:28.499Z,5.00
2018-12-05T15:38:57.608Z,5.00
2018-12-05T15:41:26.578Z,5.00
2018-12-05T15:43:55.624Z,4.80
2018-12-05T15:46:24.693Z,4.90
2018-12-05T15:48:53.725Z,4.80
2018-12-05T15:51:22.726Z,4.70
2018-12-05T15:53:51.888Z,4.70
2018-12-05T15:56:20.963Z,4.60
2018-12-05T15:58:49.995Z,4.60
2018-12-05T16:01:18.968Z,4.60
2018-12-05T16:03:48.849Z,4.60
2018-12-05T16:06:17.862Z,4.60
2018-12-05T16:08:46.851Z,4.60
2018-12-05T16:11:15.904Z,4.50
2018-12-05T16:13:45.285Z,4.40
2018-12-05T16:16:14.294Z,4.30
2018-12-05T16:18:44.351Z,4.30
2018-12-05T16:21:13.340Z,4.30
2018-12-05T16:23:42.449Z,4.20
2018-12-05T16:26:11.522Z,4.20
2018-12-05T16:28:40.598Z,4.10
2018-12-05T16:31:09.670Z,4.10
2018-12-05T16:33:38.669Z,4.10
2018-12-05T16:36:11.334Z,4.10
2018-12-05T16:38:38.887Z,4.00
2018-12-05T16:41:07.878Z,3.90
2018-12-05T16:43:36.909Z,3.90
2018-12-05T16:46:05.974Z,3.80
2018-12-05T16:48:34.951Z,3.90
2018-12-05T16:51:03.999Z,3.80
2018-12-05T16:53:33.059Z,3.80
2018-12-05T16:56:02.153Z,3.80
2018-12-05T16:58:31.209Z,3.70
2018-12-05T17:01:00.265Z,3.70
2018-12-05T17:03:29.440Z,3.70
2018-12-05T17:05:58.545Z,3.80
2018-12-05T17:08:27.596Z,3.90
2018-12-05T17:10:57.374Z,3.80
2018-12-05T17:13:26.456Z,3.80
2018-12-05T17:15:55.514Z,3.90
2018-12-05T17:18:24.595Z,3.80
2018-12-05T17:20:53.638Z,3.80
2018-12-05T17:23:22.734Z,3.80
2018-12-05T17:25:51.815Z,3.70
2018-12-05T17:28:20.941Z,3.70
2018-12-05T17:30:49.925Z,3.70
2018-12-05T17:33:18.985Z,3.70
2018-12-05T17:35:48.049Z,3.70
2018-12-05T17:38:16.989Z,3.70
2018-12-05T17:40:46.083Z,3.70
2018-12-05T17:43:15.105Z,3.60
2018-12-05T17:45:44.193Z,3.60
2018-12-05T17:48:13.385Z,3.60
2018-12-05T17:50:42.445Z,3.50
2018-12-05T17:53:11.498Z,3.50
2018-12-05T17:55:40.591Z,3.40
2018-12-05T17:58:09.745Z,3.40
2018-12-05T18:00:38.833Z,3.40
2018-12-05T18:03:07.944Z,3.40
2018-12-05T18:05:36.977Z,3.40
2018-12-05T18:08:06.030Z,3.40
2018-12-05T18:10:35.109Z,3.30
2018-12-05T18:13:04.342Z,3.20
2018-12-05T18:15:33.384Z,3.10
2018-12-05T18:18:02.527Z,3.10
2018-12-05T18:20:31.617Z,3.10
2018-12-05T18:23:00.641Z,3.10
2018-12-05T18:25:29.683Z,3.00
2018-12-05T18:27:58.802Z,2.90
2018-12-05T18:30:27.845Z,2.90
2018-12-05T18:32:57.005Z,2.90
2018-12-05T18:35:26.165Z,2.90
2018-12-05T18:37:55.210Z,2.90
2018-12-05T18:40:24.214Z,2.90
2018-12-05T18:42:53.189Z,2.90
2018-12-05T18:45:22.229Z,2.70
2018-12-05T18:47:51.307Z,2.70
2018-12-05T18:50:20.399Z,2.80
2018-12-05T18:52:49.506Z,2.70
2018-12-05T18:55:18.516Z,2.70
2018-12-05T18:58:50.538Z,2.70
2018-12-05T19:01:19.568Z,2.70
2018-12-05T19:03:48.655Z,2.70
2018-12-05T19:06:17.653Z,2.70
2018-12-05T19:08:46.648Z,2.70
2018-12-05T19:11:15.843Z,2.70
2018-12-05T19:13:50.233Z,2.70
2018-12-05T19:16:19.240Z,2.70
2018-12-05T19:18:48.329Z,2.70
2018-12-05T19:21:17.462Z,2.70
2018-12-05T19:23:47.261Z,2.70
2018-12-05T19:26:16.578Z,2.60
2018-12-05T19:28:45.773Z,2.60
2018-12-05T19:31:19.402Z,2.60
2018-12-05T19:33:45.853Z,2.60
2018-12-05T19:36:14.825Z,2.70
2018-12-05T19:38:43.879Z,2.70
2018-12-05T19:41:12.993Z,2.70
2018-12-05T19:43:42.027Z,2.70
2018-12-05T19:46:11.098Z,2.70
2018-12-05T19:48:40.970Z,2.70
2018-12-05T19:51:10.969Z,2.80
2018-12-05T19:53:40.202Z,2.80
2018-12-05T19:56:09.412Z,2.90
2018-12-05T19:58:38.462Z,2.90
2018-12-05T20:01:07.434Z,2.80
2018-12-05T20:03:36.498Z,2.70
2018-12-05T20:06:05.506Z,2.80
2018-12-05T20:08:34.618Z,2.80
2018-12-05T20:11:03.745Z,2.70
2018-12-05T20:13:34.625Z,2.80
2018-12-05T20:16:03.675Z,2.90
2018-12-05T20:25:28.136Z,2.80
2018-12-05T20:27:57.140Z,2.70
2018-12-05T20:30:26.181Z,2.60
2018-12-05T20:32:56.018Z,2.70
2018-12-05T20:35:25.092Z,2.80
2018-12-05T20:37:54.225Z,2.80
2018-12-05T20:40:23.342Z,2.90
2018-12-05T20:42:52.437Z,2.90
2018-12-05T20:45:21.469Z,2.80
2018-12-05T20:47:50.595Z,2.70
2018-12-05T20:50:19.924Z,2.80
2018-12-05T20:52:49.391Z,2.70
2018-12-05T20:55:18.346Z,2.70
2018-12-05T20:57:47.458Z,2.80
2018-12-05T21:00:16.568Z,2.90
2018-12-05T21:02:45.613Z,2.80
2018-12-05T21:05:14.642Z,2.80
2018-12-05T21:07:43.778Z,2.70
2018-12-05T21:10:12.884Z,2.70
2018-12-05T21:12:41.881Z,2.70
2018-12-05T21:15:11.039Z,2.70
2018-12-05T21:17:40.102Z,2.80
2018-12-05T21:20:09.238Z,2.70
2018-12-05T21:22:38.365Z,2.90
2018-12-05T21:25:07.446Z,2.80
2018-12-05T21:27:36.447Z,2.80
2018-12-05T21:30:06.898Z,2.90
2018-12-05T21:32:36.103Z,3.00
2018-12-05T21:35:05.266Z,3.00
2018-12-05T21:37:34.307Z,3.00
2018-12-05T21:40:03.726Z,2.80
2018-12-05T21:42:32.837Z,2.90
2018-12-05T21:45:02.085Z,3.00
2018-12-05T21:47:31.305Z,3.00
2018-12-05T21:50:00.374Z,3.10
2018-12-05T21:52:30.889Z,3.10
2018-12-05T21:54:59.985Z,3.00
2018-12-05T21:57:29.135Z,3.00
2018-12-05T21:59:58.113Z,3.00
2018-12-05T22:02:27.201Z,3.00
2018-12-05T22:04:56.297Z,3.00
2018-12-05T22:07:25.714Z,3.10
2018-12-05T22:09:54.761Z,3.10
2018-12-05T22:12:23.904Z,3.10
2018-12-05T22:14:52.967Z,3.10
2018-12-05T22:17:21.973Z,3.00
2018-12-05T22:19:51.171Z,3.00
2018-12-05T22:22:21.354Z,3.10
2018-12-05T22:24:50.643Z,3.10
2018-12-05T22:27:19.669Z,3.20
2018-12-05T22:29:48.690Z,3.00
2018-12-05T22:32:17.721Z,3.10
2018-12-05T22:34:46.727Z,3.30
2018-12-05T22:37:15.866Z,3.20
2018-12-05T22:39:45.063Z,3.10
2018-12-05T22:42:14.172Z,3.00
2018-12-05T22:44:43.173Z,3.10
2018-12-05T22:47:12.192Z,3.10
2018-12-05T22:49:41.160Z,3.10
2018-12-05T22:52:10.187Z,3.10
2018-12-05T22:54:39.235Z,3.20
2018-12-05T22:57:14.188Z,3.30
2018-12-05T22:59:43.262Z,3.20
2018-12-05T23:02:12.341Z,3.20
2018-12-05T23:04:41.366Z,3.30
2018-12-05T23:07:10.387Z,3.20
2018-12-05T23:09:40.317Z,3.20
2018-12-05T23:12:09.390Z,3.30
2018-12-05T23:14:38.494Z,3.30
2018-12-05T23:17:07.589Z,3.30
2018-12-05T23:19:36.657Z,3.30
2018-12-05T23:22:05.650Z,3.30
2018-12-05T23:24:34.777Z,3.40
2018-12-05T23:27:03.834Z,3.30
2018-12-05T23:29:32.989Z,3.40
2018-12-05T23:32:02.027Z,3.40
2018-12-05T23:34:31.020Z,3.40
2018-12-05T23:37:00.009Z,3.20
2018-12-05T23:39:29.024Z,3.30
2018-12-05T23:41:58.085Z,3.40
2018-12-05T23:44:27.138Z,3.40
2018-12-05T23:46:56.182Z,3.40
2018-12-05T23:56:54.833Z,3.50
2018-12-05T23:59:23.830Z,3.30
